Time;durP1;ratioP1;P1;durP2;ratioP2;P2;SDS_P1;SDS_P2;PMS_P1;PMS_P2;Temp;Humidity;BMP_temperature;BMP_pressure;BME280_temperature;BME280_humidity;BME280_pressure;Samples;Min_cycle;Max_cycle;Signal;HPM_P1;HPM_P2
2024/01/06 00:00:22;;;;;;;19.83;8.35;;;;;;;5.78;56.03;100504.84;5044270;28;20506;-40
2024/01/06 00:02:48;;;;;;;17.67;9.15;;;;;;;5.70;55.52;100512.97;5043215;28;20058;-40
2024/01/06 00:05:14;;;;;;;18.55;8.73;;;;;;;5.68;55.66;100513.97;5046162;28;20494;-40
2024/01/06 00:07:39;;;;;;;21.60;9.13;;;;;;;5.79;55.67;100516.97;5041309;28;20121;-40
2024/01/06 00:10:05;;;;;;;16.52;7.93;;;;;;;5.88;55.72;100510.53;5042172;28;20032;-40
2024/01/06 00:12:31;;;;;;;19.77;9.52;;;;;;;5.88;55.47;100518.38;5043208;28;20462;-40
2024/01/06 00:14:56;;;;;;;14.80;8.50;;;;;;;5.92;55.92;100512.09;5027078;28;20576;-40
2024/01/06 00:17:22;;;;;;;24.92;10.85;;;;;;;5.87;55.41;100509.69;5036209;28;20124;-39
2024/01/06 00:19:50;;;;;;;23.00;9.70;;;;;;;5.83;55.70;100508.13;5044835;28;20060;-39
2024/01/06 00:22:16;;;;;;;21.80;10.15;;;;;;;5.86;55.81;100508.00;5039949;28;20027;-40
2024/01/06 00:24:41;;;;;;;20.83;10.98;;;;;;;5.82;55.59;100516.84;5044736;28;20025;-39
2024/01/06 00:27:07;;;;;;;21.27;10.63;;;;;;;5.79;55.87;100507.41;5045770;28;20055;-40
2024/01/06 00:29:32;;;;;;;21.70;10.85;;;;;;;5.83;55.68;100505.50;5046878;28;20488;-40
2024/01/06 00:31:57;;;;;;;23.90;12.02;;;;;;;5.85;55.56;100508.03;5040586;28;20029;-40
2024/01/06 00:34:23;;;;;;;25.73;12.38;;;;;;;5.87;55.82;100511.44;5026298;28;20029;-40
2024/01/06 00:36:48;;;;;;;21.45;10.00;;;;;;;5.87;56.14;100514.06;5045011;28;20128;-40
2024/01/06 00:39:13;;;;;;;20.98;9.93;;;;;;;5.80;56.26;100518.69;5038278;28;20028;-40
2024/01/06 00:41:39;;;;;;;22.00;10.43;;;;;;;5.79;56.30;100517.84;5041773;28;20052;-39
2024/01/06 00:44:04;;;;;;;25.88;11.80;;;;;;;5.78;55.92;100516.16;5044835;28;20403;-40
2024/01/06 00:46:30;;;;;;;30.65;10.85;;;;;;;5.74;55.73;100518.94;5042159;28;20506;-40
2024/01/06 00:48:55;;;;;;;29.97;14.73;;;;;;;5.74;56.41;100511.94;5040140;28;20441;-40
2024/01/06 00:51:21;;;;;;;28.40;11.38;;;;;;;5.90;55.97;100511.31;5043442;28;20048;-39
2024/01/06 00:53:47;;;;;;;21.65;10.80;;;;;;;5.96;56.04;100513.69;5042521;28;20060;-40
2024/01/06 00:56:13;;;;;;;24.88;11.73;;;;;;;5.83;55.79;100508.13;5043117;28;20029;-40
2024/01/06 00:58:38;;;;;;;20.00;10.68;;;;;;;5.93;55.80;100508.59;5039142;28;20041;-40
2024/01/06 01:01:04;;;;;;;22.60;10.70;;;;;;;5.82;56.00;100516.84;5034873;28;20120;-40
2024/01/06 01:03:29;;;;;;;19.08;9.70;;;;;;;5.91;55.70;100511.25;5041134;28;20075;-42
2024/01/06 01:05:55;;;;;;;21.55;10.18;;;;;;;5.67;56.03;100522.72;5033914;28;20602;-40
2024/01/06 01:08:20;;;;;;;19.77;10.27;;;;;;;5.70;56.30;100528.66;5022299;28;20037;-40
2024/01/06 01:10:45;;;;;;;23.58;10.18;;;;;;;5.83;56.13;100533.34;5037065;28;20509;-40
2024/01/06 01:13:11;;;;;;;22.60;11.15;;;;;;;5.89;56.07;100530.50;5038503;28;20032;-40
2024/01/06 01:15:36;;;;;;;20.20;10.70;;;;;;;5.93;55.68;100526.88;5044591;28;20052;-40
2024/01/06 01:18:01;;;;;;;24.02;10.98;;;;;;;5.97;55.56;100531.06;5038154;28;20036;-40
2024/01/06 01:20:27;;;;;;;23.23;11.65;;;;;;;5.87;55.85;100543.63;5039172;28;20021;-40
2024/01/06 01:22:52;;;;;;;22.75;10.88;;;;;;;5.75;55.92;100551.94;5041772;28;20060;-40
2024/01/06 01:25:18;;;;;;;19.48;10.93;;;;;;;5.79;55.69;100546.56;5031010;28;20037;-40
2024/01/06 01:27:43;;;;;;;22.60;10.55;;;;;;;5.86;55.83;100535.84;5039901;28;20158;-39
2024/01/06 01:30:09;;;;;;;19.85;10.35;;;;;;;5.92;55.53;100533.00;5041596;28;20056;-39
2024/01/06 01:32:34;;;;;;;21.85;9.88;;;;;;;5.86;55.52;100544.56;5043042;28;20543;-40
2024/01/06 01:35:00;;;;;;;23.77;10.57;;;;;;;5.78;55.83;100549.22;5041317;28;20361;-39
2024/01/06 01:37:25;;;;;;;24.35;11.23;;;;;;;5.78;55.62;100552.69;5043958;28;20017;-38
2024/01/06 01:39:50;;;;;;;26.08;10.52;;;;;;;5.82;55.58;100547.34;5044289;28;20109;-38
2024/01/06 01:42:16;;;;;;;24.60;10.93;;;;;;;5.81;55.57;100546.50;5027873;28;20498;-38
2024/01/06 01:44:41;;;;;;;20.55;9.43;;;;;;;5.80;55.18;100545.66;5045680;28;20470;-37
2024/01/06 01:47:07;;;;;;;20.70;10.65;;;;;;;5.84;54.81;100545.50;5040545;28;20033;-38
2024/01/06 01:49:33;;;;;;;24.38;12.85;;;;;;;5.86;54.82;100548.91;5044478;28;20059;-37
2024/01/06 01:51:58;;;;;;;19.05;9.55;;;;;;;5.80;55.10;100552.63;5043694;28;20061;-38
2024/01/06 01:54:25;;;;;;;21.17;10.25;;;;;;;5.82;54.93;100547.34;5045268;28;20082;-38
2024/01/06 01:56:51;;;;;;;24.83;10.68;;;;;;;5.76;55.21;100554.53;5042227;28;20029;-37
2024/01/06 01:59:18;;;;;;;26.90;9.95;;;;;;;5.74;55.67;100555.50;5043791;28;20032;-38
2024/01/06 02:01:44;;;;;;;21.40;10.65;;;;;;;5.63;55.20;100553.31;5041738;28;20141;-38
2024/01/06 02:04:09;;;;;;;21.35;10.45;;;;;;;5.51;55.74;100559.03;5043589;28;20525;-38
2024/01/06 02:06:35;;;;;;;24.42;10.75;;;;;;;5.51;55.85;100556.44;5046561;28;20036;-38
2024/01/06 02:09:00;;;;;;;22.45;11.02;;;;;;;5.49;56.03;100559.94;5043849;28;20029;-37
2024/01/06 02:11:26;;;;;;;22.20;10.35;;;;;;;5.56;55.69;100564.91;5040896;28;20025;-38
2024/01/06 02:13:51;;;;;;;21.77;11.07;;;;;;;5.56;55.97;100562.28;5038352;28;20108;-37
2024/01/06 02:16:17;;;;;;;20.35;9.52;;;;;;;5.56;55.50;100564.91;5043985;28;20033;-38
2024/01/06 02:18:42;;;;;;;23.83;9.90;;;;;;;5.53;55.31;100567.63;5042620;28;20040;-38
2024/01/06 02:21:07;;;;;;;22.95;10.90;;;;;;;5.57;55.11;100572.69;5046216;28;20395;-43
2024/01/06 02:23:35;;;;;;;21.25;10.25;;;;;;;5.47;55.68;100564.38;5041465;28;20037;-37
2024/01/06 02:26:01;;;;;;;23.50;9.40;;;;;;;5.52;55.34;100565.97;5041770;28;20040;-37
2024/01/06 02:28:26;;;;;;;21.73;9.57;;;;;;;5.56;55.45;100577.94;5046536;28;20021;-37
2024/01/06 02:30:51;;;;;;;25.50;10.68;;;;;;;5.42;55.98;100576.72;5040272;28;20041;-38
2024/01/06 02:33:19;;;;;;;24.63;9.25;;;;;;;5.36;55.95;100566.56;5045179;28;20116;-38
2024/01/06 02:35:47;;;;;;;24.13;10.48;;;;;;;5.43;55.68;100573.22;5042726;28;20116;-38
2024/01/06 02:38:12;;;;;;;19.02;9.70;;;;;;;5.49;55.40;100578.22;5042425;28;20017;-38
2024/01/06 02:40:38;;;;;;;20.73;9.95;;;;;;;5.29;55.56;100580.72;5042467;28;20056;-37
2024/01/06 02:43:03;;;;;;;27.50;9.90;;;;;;;5.36;55.94;100582.22;5041242;28;20086;-37
2024/01/06 02:45:29;;;;;;;21.58;9.93;;;;;;;5.42;55.33;100575.91;5039675;28;20084;-38
2024/01/06 02:47:54;;;;;;;18.98;9.75;;;;;;;5.39;55.36;100574.25;5025143;28;20063;-37
2024/01/06 02:50:19;;;;;;;24.77;9.95;;;;;;;5.40;55.18;100580.31;5045419;28;20060;-38
2024/01/06 02:52:45;;;;;;;25.25;10.75;;;;;;;5.24;55.30;100587.88;5042145;28;20033;-37
2024/01/06 02:55:10;;;;;;;24.55;10.38;;;;;;;5.36;55.80;100581.34;5043318;28;20577;-40
2024/01/06 02:57:37;;;;;;;21.02;9.55;;;;;;;5.28;55.59;100589.47;5045025;28;20040;-40
2024/01/06 03:00:03;;;;;;;21.55;9.32;;;;;;;5.34;55.51;100589.25;5049122;28;20043;-39
2024/01/06 03:02:28;;;;;;;23.27;10.10;;;;;;;5.40;55.14;100593.38;5045386;28;20043;-39
2024/01/06 03:04:54;;;;;;;303.65;52.72;;;;;;;5.41;55.06;100589.84;5045720;28;20033;-40
2024/01/06 03:07:20;;;;;;;27.88;9.93;;;;;;;5.41;55.26;100601.13;5045991;28;20036;-40
2024/01/06 03:09:46;;;;;;;27.15;10.07;;;;;;;5.39;55.32;100602.09;5044802;28;20086;-40
2024/01/06 03:12:11;;;;;;;16.95;8.68;;;;;;;5.31;55.57;100602.41;5046603;28;20087;-39
2024/01/06 03:14:37;;;;;;;22.23;9.48;;;;;;;5.45;55.67;100597.50;5046030;28;20033;-40
2024/01/06 03:17:03;;;;;;;20.77;9.63;;;;;;;5.27;55.55;100609.50;5044736;28;20495;-40
2024/01/06 03:19:29;;;;;;;29.77;11.05;;;;;;;5.35;55.81;100609.22;5037507;28;20028;-40
2024/01/06 03:21:54;;;;;;;20.95;9.40;;;;;;;5.25;55.54;100605.22;5046502;28;20645;-40
2024/01/06 03:24:24;;;;;;;22.23;10.23;;;;;;;5.40;55.67;100609.03;5043537;28;20033;-40
2024/01/06 03:26:50;;;;;;;22.90;9.82;;;;;;;5.43;55.67;100603.69;5047185;28;20035;-40
2024/01/06 03:29:15;;;;;;;23.20;9.90;;;;;;;5.29;55.13;100614.66;5049197;28;20513;-39
2024/01/06 03:31:44;;;;;;;24.08;11.27;;;;;;;5.42;54.97;100613.28;5045896;28;20087;-40
2024/01/06 03:34:12;;;;;;;21.83;10.25;;;;;;;5.42;54.78;100628.09;5047823;28;20025;-40
2024/01/06 03:36:38;;;;;;;20.40;8.63;;;;;;;5.49;54.81;100621.72;5046238;28;20037;-40
2024/01/06 03:39:04;;;;;;;22.13;11.60;;;;;;;5.38;55.07;100621.28;5046571;28;20036;-40
2024/01/06 03:41:30;;;;;;;23.13;10.20;;;;;;;5.48;54.62;100627.84;5043568;28;20104;-40
2024/01/06 03:43:55;;;;;;;26.20;10.70;;;;;;;5.38;55.06;100635.16;5050076;28;20082;-40
2024/01/06 03:46:22;;;;;;;24.52;10.68;;;;;;;5.39;54.75;100634.25;5042310;28;20029;-40
2024/01/06 03:48:47;;;;;;;21.85;11.07;;;;;;;5.36;55.29;100631.78;5047696;28;20095;-40
2024/01/06 03:51:12;;;;;;;25.75;10.00;;;;;;;5.33;55.71;100635.34;5047538;28;20033;-39
2024/01/06 03:53:38;;;;;;;21.23;11.27;;;;;;;5.39;55.27;100636.88;5044648;28;20040;-40
2024/01/06 03:56:04;;;;;;;28.98;9.77;;;;;;;5.46;54.81;100643.56;5045896;28;20116;-40
2024/01/06 03:58:29;;;;;;;15.10;6.57;;;;;;;5.52;54.88;100634.66;5042547;28;20771;-40
2024/01/06 04:00:55;;;;;;;24.80;9.77;;;;;;;5.25;55.00;100636.53;5045883;28;20458;-40
2024/01/06 04:03:20;;;;;;;24.75;9.57;;;;;;;5.17;55.48;100640.28;5043800;28;20036;-40
2024/01/06 04:05:46;;;;;;;22.83;10.27;;;;;;;5.10;55.61;100636.19;5042518;28;20071;-39
2024/01/06 04:08:11;;;;;;;21.83;9.68;;;;;;;5.01;55.56;100645.19;5044764;28;20442;-40
2024/01/06 04:10:37;;;;;;;18.70;8.63;;;;;;;5.02;55.46;100646.06;5043445;28;20033;-40
2024/01/06 04:13:02;;;;;;;20.60;9.27;;;;;;;5.08;55.27;100651.03;5042383;28;20055;-40
2024/01/06 04:15:28;;;;;;;24.73;9.88;;;;;;;5.08;55.24;100658.03;5042540;28;20021;-40
2024/01/06 04:17:54;;;;;;;20.42;8.48;;;;;;;5.08;54.81;100656.25;5044154;28;20499;-40
2024/01/06 04:20:19;;;;;;;18.58;9.10;;;;;;;5.05;55.05;100651.19;5043196;28;20107;-40
2024/01/06 04:22:45;;;;;;;20.90;8.95;;;;;;;4.98;55.43;100653.16;5038433;28;20037;-40
2024/01/06 04:25:10;;;;;;;25.02;10.45;;;;;;;4.90;55.42;100656.94;5040762;28;20038;-40
2024/01/06 04:27:36;;;;;;;17.02;9.00;;;;;;;4.88;55.69;100655.25;5046516;28;20414;-39
2024/01/06 04:30:01;;;;;;;22.88;9.68;;;;;;;4.97;55.17;100661.03;5043643;28;20032;-40
2024/01/06 04:32:27;;;;;;;24.30;10.25;;;;;;;4.98;55.21;100666.19;5044573;28;20052;-40
2024/01/06 04:34:52;;;;;;;20.20;9.23;;;;;;;4.95;55.05;100661.09;5042394;28;20125;-40
2024/01/06 04:37:18;;;;;;;22.08;10.52;;;;;;;4.90;55.11;100664.78;5042465;28;20033;-39
2024/01/06 04:39:43;;;;;;;22.83;8.38;;;;;;;4.95;54.89;100661.09;5043661;28;20021;-40
2024/01/06 04:42:09;;;;;;;17.80;8.45;;;;;;;4.93;55.13;100656.81;5040294;28;20111;-39
2024/01/06 04:44:34;;;;;;;19.80;9.30;;;;;;;4.94;55.02;100658.50;5045317;28;20429;-39
2024/01/06 04:47:00;;;;;;;21.95;8.52;;;;;;;4.86;54.94;100653.56;5041440;28;20643;-39
2024/01/06 04:49:25;;;;;;;21.20;8.93;;;;;;;4.86;55.40;100651.84;5046145;28;20029;-39
2024/01/06 04:51:50;;;;;;;19.98;9.77;;;;;;;4.82;55.38;100658.06;5045520;28;20549;-39
2024/01/06 04:54:16;;;;;;;15.82;8.68;;;;;;;4.88;55.38;100665.66;5043790;28;20039;-40
2024/01/06 04:56:41;;;;;;;23.83;8.63;;;;;;;4.88;55.03;100678.72;5044430;28;20116;-40
2024/01/06 04:59:06;;;;;;;21.02;9.57;;;;;;;4.91;55.44;100682.13;5045869;28;20044;-40
2024/01/06 05:01:32;;;;;;;22.38;9.10;;;;;;;4.82;55.45;100686.72;5046779;28;20033;-40
2024/01/06 05:03:58;;;;;;;21.80;8.70;;;;;;;4.87;55.12;100679.59;5042521;28;20078;-40
2024/01/06 05:06:24;;;;;;;13.80;8.00;;;;;;;4.86;55.33;100683.13;5042355;28;20127;-40
2024/01/06 05:08:49;;;;;;;20.27;10.32;;;;;;;4.81;55.99;100679.81;5045500;28;20036;-40
2024/01/06 05:11:15;;;;;;;18.45;7.78;;;;;;;4.80;55.63;100680.72;5045805;28;20385;-39
2024/01/06 05:13:40;;;;;;;16.17;8.73;;;;;;;4.76;55.88;100691.31;5043652;28;20487;-40
2024/01/06 05:16:07;;;;;;;16.55;7.78;;;;;;;4.81;55.86;100695.44;5040820;28;20034;-40
2024/01/06 05:18:33;;;;;;;20.58;8.77;;;;;;;4.69;55.67;100696.72;5051107;28;20119;-39
2024/01/06 05:20:58;;;;;;;15.13;7.10;;;;;;;4.65;56.05;100696.88;5042596;28;20116;-40
2024/01/06 05:23:23;;;;;;;18.30;8.38;;;;;;;4.42;55.99;100698.50;5041592;28;20083;-40
2024/01/06 05:25:49;;;;;;;18.33;7.50;;;;;;;4.56;56.05;100704.13;5036671;28;20037;-40
2024/01/06 05:28:14;;;;;;;20.90;9.30;;;;;;;4.55;56.06;100705.00;5038010;28;20032;-40
2024/01/06 05:30:39;;;;;;;21.75;7.15;;;;;;;4.64;56.17;100708.19;5043599;28;20053;-39
2024/01/06 05:33:05;;;;;;;15.35;7.47;;;;;;;4.62;56.08;100704.78;5041783;28;20029;-39
2024/01/06 05:35:30;;;;;;;13.65;7.80;;;;;;;4.60;55.55;100717.88;5046555;28;20029;-40
2024/01/06 05:37:56;;;;;;;13.65;6.95;;;;;;;4.57;55.63;100717.97;5041381;28;20399;-40
2024/01/06 05:40:21;;;;;;;15.77;6.82;;;;;;;4.57;55.79;100712.78;5044902;28;20033;-39
2024/01/06 05:42:46;;;;;;;18.15;7.95;;;;;;;4.61;55.60;100721.38;5043855;28;20491;-39
2024/01/06 05:45:13;;;;;;;16.85;8.00;;;;;;;4.65;55.40;100721.19;5044814;28;20032;-40
2024/01/06 05:47:38;;;;;;;15.90;8.30;;;;;;;4.49;55.94;100728.66;5043753;28;20112;-39
2024/01/06 05:50:04;;;;;;;12.98;5.38;;;;;;;4.35;56.13;100733.47;5044242;28;20451;-40
2024/01/06 05:52:29;;;;;;;15.68;7.20;;;;;;;4.38;55.93;100733.38;5044048;28;20047;-40
2024/01/06 05:54:55;;;;;;;19.80;9.40;;;;;;;4.39;56.14;100740.28;5027102;28;20033;-40
2024/01/06 05:57:20;;;;;;;16.50;7.18;;;;;;;4.37;56.04;100745.56;5044407;28;20033;-39
2024/01/06 05:59:46;;;;;;;15.32;7.68;;;;;;;4.33;56.24;100750.88;5044716;28;20064;-39
2024/01/06 06:02:11;;;;;;;20.13;10.50;;;;;;;4.35;56.17;100751.69;5043620;28;20053;-40
2024/01/06 06:04:36;;;;;;;19.67;8.02;;;;;;;4.40;56.05;100747.22;5041248;28;20028;-40
2024/01/06 06:07:02;;;;;;;19.42;8.57;;;;;;;4.41;56.23;100752.34;5028141;28;20021;-40
2024/01/06 06:09:28;;;;;;;13.65;8.10;;;;;;;4.43;56.12;100754.94;5046151;28;20475;-40
2024/01/06 06:11:54;;;;;;;16.98;8.38;;;;;;;4.42;56.21;100761.03;5042788;28;20039;-40
2024/01/06 06:14:19;;;;;;;17.23;8.27;;;;;;;4.43;56.33;100767.97;5042661;28;20036;-40
2024/01/06 06:16:44;;;;;;;23.58;8.27;;;;;;;4.45;56.21;100776.59;5043173;28;20056;-39
2024/01/06 06:19:10;;;;;;;27.45;9.38;;;;;;;4.43;56.22;100789.63;5045184;28;20090;-39
2024/01/06 06:21:35;;;;;;;17.42;8.30;;;;;;;4.26;56.18;100784.09;5044547;28;20450;-40
2024/01/06 06:24:01;;;;;;;20.63;8.60;;;;;;;4.34;56.38;100795.16;5044987;28;20590;-40
2024/01/06 06:26:28;;;;;;;20.60;10.77;;;;;;;4.52;56.38;100795.47;5040745;28;20143;-39
2024/01/06 06:28:53;;;;;;;18.10;8.38;;;;;;;4.52;56.36;100798.94;5038061;28;20036;-40
2024/01/06 06:31:19;;;;;;;22.92;9.10;;;;;;;4.53;56.14;100799.78;5034558;28;20070;-40
2024/01/06 06:33:44;;;;;;;18.08;8.20;;;;;;;4.62;55.49;100809.03;5041926;28;20116;-39
2024/01/06 06:36:10;;;;;;;19.42;8.50;;;;;;;4.53;55.66;100808.44;5047260;28;21473;-39
2024/01/06 06:38:36;;;;;;;24.85;10.27;;;;;;;4.39;56.41;100815.84;5049447;28;20031;-39
2024/01/06 06:41:01;;;;;;;19.40;8.68;;;;;;;4.50;56.09;100816.34;5048133;28;20075;-39
2024/01/06 06:43:26;;;;;;;17.27;9.43;;;;;;;4.36;56.50;100821.16;5044594;28;20040;-39
2024/01/06 06:45:52;;;;;;;24.45;10.23;;;;;;;4.39;56.68;100828.88;5045763;28;20052;-39
2024/01/06 06:48:18;;;;;;;9.00;5.57;;;;;;;4.45;56.10;100833.91;5047065;28;20411;-40
2024/01/06 06:50:43;;;;;;;17.30;8.50;;;;;;;4.42;56.00;100836.59;5051334;28;20020;-40
2024/01/06 06:53:09;;;;;;;16.27;8.00;;;;;;;4.48;56.34;100848.59;5043158;28;20375;-40
2024/01/06 06:55:34;;;;;;;23.15;10.25;;;;;;;4.44;55.99;100840.03;5044462;28;20029;-39
2024/01/06 06:58:00;;;;;;;16.30;7.65;;;;;;;4.34;56.01;100857.69;5047164;28;20040;-40
2024/01/06 07:00:25;;;;;;;21.13;8.77;;;;;;;4.26;56.62;100855.28;5044933;28;20479;-39
2024/01/06 07:02:51;;;;;;;16.25;8.30;;;;;;;4.30;56.43;100865.63;5046877;28;20033;-39
2024/01/06 07:05:17;;;;;;;23.80;9.85;;;;;;;4.42;56.48;100876.53;5050762;28;20104;-40
2024/01/06 07:07:46;;;;;;;19.30;8.55;;;;;;;4.45;56.07;100874.72;5049446;28;20044;-40
2024/01/06 07:10:12;;;;;;;18.33;7.05;;;;;;;4.44;56.05;100884.31;5048670;28;20029;-40
2024/01/06 07:12:37;;;;;;;20.88;9.23;;;;;;;4.47;55.74;100879.00;5046293;28;20047;-39
2024/01/06 07:15:03;;;;;;;20.33;8.02;;;;;;;4.49;55.69;100877.19;5041166;28;20032;-40
2024/01/06 07:17:28;;;;;;;21.88;9.27;;;;;;;4.38;56.08;100880.16;5044637;28;20131;-40
2024/01/06 07:19:54;;;;;;;17.48;8.73;;;;;;;4.33;56.36;100886.38;5049317;28;20094;-40
2024/01/06 07:22:20;;;;;;;14.85;8.07;;;;;;;4.33;56.70;100887.22;5044476;28;20387;-40
2024/01/06 07:24:45;;;;;;;15.50;8.25;;;;;;;4.14;56.53;100889.53;5047182;28;20029;-39
2024/01/06 07:27:11;;;;;;;16.50;8.35;;;;;;;4.31;56.34;100898.59;5046165;28;20414;-40
2024/01/06 07:29:37;;;;;;;20.42;9.32;;;;;;;4.10;56.95;100900.91;5047809;28;20044;-40
2024/01/06 07:32:03;;;;;;;19.42;8.32;;;;;;;4.12;56.94;100901.72;5042717;28;20075;-39
2024/01/06 07:34:28;;;;;;;21.65;8.90;;;;;;;4.14;57.09;100906.88;5043800;28;20037;-40
2024/01/06 07:36:54;;;;;;;17.75;8.75;;;;;;;4.23;56.58;100912.69;5042154;28;20483;-40
2024/01/06 07:39:19;;;;;;;16.30;7.30;;;;;;;4.21;57.19;100913.66;5046854;28;20069;-39
2024/01/06 07:41:46;;;;;;;17.23;8.00;;;;;;;4.18;57.04;100916.31;5046952;28;20027;-40
2024/01/06 07:44:12;;;;;;;16.73;7.93;;;;;;;4.20;56.92;100928.41;5045598;28;20124;-40
2024/01/06 07:46:40;;;;;;;16.85;8.00;;;;;;;4.04;57.08;100932.31;5044253;28;20033;-39
2024/01/06 07:49:05;;;;;;;20.48;8.02;;;;;;;4.12;57.00;100936.44;5046591;28;20033;-40
2024/01/06 07:51:31;;;;;;;16.45;7.15;;;;;;;4.25;56.62;100947.38;5044228;28;20029;-40
2024/01/06 07:53:56;;;;;;;12.98;7.72;;;;;;;4.30;56.76;100949.00;5046047;28;20060;-40
2024/01/06 07:56:21;;;;;;;19.25;8.32;;;;;;;4.26;57.10;100943.00;5045523;28;20075;-39
2024/01/06 07:58:47;;;;;;;18.33;7.88;;;;;;;4.22;56.40;100949.22;5046324;28;20491;-40
2024/01/06 08:01:13;;;;;;;11.63;6.80;;;;;;;4.11;56.48;100949.50;5041979;28;20408;-40
2024/01/06 08:03:38;;;;;;;16.67;7.35;;;;;;;4.10;57.05;100943.41;5045539;28;20037;-40
2024/01/06 08:06:04;;;;;;;11.68;4.93;;;;;;;4.04;56.34;100942.75;5043309;28;20062;-39
2024/01/06 08:08:29;;;;;;;20.30;7.80;;;;;;;4.18;56.67;100942.38;5046790;28;20052;-40
2024/01/06 08:10:54;;;;;;;15.23;6.47;;;;;;;4.14;56.63;100938.13;5047373;28;20171;-40
2024/01/06 08:13:20;;;;;;;15.30;7.13;;;;;;;4.24;56.47;100945.66;5046291;28;20040;-39
2024/01/06 08:15:45;;;;;;;15.27;7.93;;;;;;;4.11;56.67;100944.28;5049066;28;20071;-40
2024/01/06 08:18:10;;;;;;;13.48;6.72;;;;;;;4.08;56.77;100958.22;5027858;28;20033;-40
2024/01/06 08:20:36;;;;;;;22.20;7.97;;;;;;;4.01;56.97;100961.06;5042981;28;20036;-40
2024/01/06 08:23:01;;;;;;;13.90;7.57;;;;;;;4.14;56.60;100964.19;5043666;28;20116;-39
2024/01/06 08:25:27;;;;;;;16.65;6.85;;;;;;;4.24;56.67;100969.09;5045194;28;20025;-40
2024/01/06 08:27:52;;;;;;;17.17;6.90;;;;;;;4.26;56.60;100979.47;5046867;28;20032;-39
2024/01/06 08:30:19;;;;;;;17.77;7.30;;;;;;;4.25;56.77;100973.41;5042134;28;20036;-40
2024/01/06 08:32:44;;;;;;;16.10;7.25;;;;;;;4.25;56.56;100972.53;5044881;28;20148;-39
2024/01/06 08:35:09;;;;;;;19.95;8.30;;;;;;;4.24;56.49;100984.72;5044081;28;20115;-40
2024/01/06 08:37:35;;;;;;;14.30;7.82;;;;;;;4.21;56.33;100979.59;5045014;28;20032;-39
2024/01/06 08:40:00;;;;;;;13.07;6.57;;;;;;;4.34;56.39;100992.28;5045802;28;20035;-37
2024/01/06 08:42:26;;;;;;;22.17;7.10;;;;;;;4.40;56.39;100987.75;5045072;28;20112;-38
2024/01/06 08:44:51;;;;;;;16.10;7.18;;;;;;;4.43;56.07;100986.84;5043588;28;20462;-37
2024/01/06 08:47:17;;;;;;;18.65;8.63;;;;;;;4.46;56.20;100984.16;5044712;28;20493;-37
2024/01/06 08:49:42;;;;;;;15.15;7.85;;;;;;;4.51;56.16;100989.22;5041587;28;20478;-38
2024/01/06 08:52:07;;;;;;;14.18;6.78;;;;;;;4.47;56.04;100983.22;5039741;28;20028;-38
2024/01/06 08:54:33;;;;;;;13.07;6.65;;;;;;;4.40;55.95;100974.72;5044387;28;20469;-37
2024/01/06 08:56:58;;;;;;;15.93;7.60;;;;;;;4.28;56.06;100988.09;5045366;28;20040;-38
2024/01/06 08:59:24;;;;;;;16.05;7.22;;;;;;;4.54;56.34;100989.97;5044716;28;20035;-38
2024/01/06 09:01:49;;;;;;;18.80;8.50;;;;;;;4.47;55.92;100995.41;5043331;28;20056;-38
2024/01/06 09:04:14;;;;;;;25.02;9.95;;;;;;;4.51;56.35;100990.06;5024382;28;20120;-37
2024/01/06 09:06:41;;;;;;;15.15;6.72;;;;;;;4.54;56.01;101005.63;5044532;28;20045;-38
2024/01/06 09:09:08;;;;;;;18.05;7.40;;;;;;;4.58;55.73;101007.25;5044820;28;20106;-39
2024/01/06 09:11:33;;;;;;;16.75;6.45;;;;;;;4.49;55.71;101015.31;5039683;28;20024;-39
2024/01/06 09:13:59;;;;;;;13.20;6.18;;;;;;;4.55;55.88;101011.66;5044113;28;20524;-40
2024/01/06 09:16:24;;;;;;;18.75;7.82;;;;;;;4.47;55.48;101027.53;5025437;28;20064;-39
2024/01/06 09:18:50;;;;;;;14.68;7.22;;;;;;;4.56;55.39;101022.06;5044507;28;20403;-40
2024/01/06 09:21:15;;;;;;;18.35;7.70;;;;;;;4.65;55.58;101034.00;5045169;28;20112;-39
2024/01/06 09:23:41;;;;;;;14.43;7.38;;;;;;;4.67;55.53;101046.97;5041469;28;20037;-39
2024/01/06 09:26:06;;;;;;;16.35;7.80;;;;;;;4.62;55.31;101047.09;5027065;28;20055;-40
2024/01/06 09:28:32;;;;;;;12.00;6.43;;;;;;;4.71;55.37;101059.03;5043362;28;20032;-39
2024/01/06 09:30:57;;;;;;;12.57;6.53;;;;;;;4.75;55.43;101051.97;5039283;28;20025;-40
2024/01/06 09:33:23;;;;;;;14.90;6.88;;;;;;;4.79;55.09;101061.41;5040993;28;20037;-39
2024/01/06 09:35:48;;;;;;;16.25;6.57;;;;;;;4.86;55.25;101062.94;5044117;28;20387;-40
2024/01/06 09:38:14;;;;;;;18.08;7.55;;;;;;;4.79;55.02;101059.66;5043270;28;20033;-40
2024/01/06 09:40:45;;;;;;;12.50;6.20;;;;;;;4.77;54.80;101071.03;5039557;28;20063;-39
2024/01/06 09:43:11;;;;;;;18.08;8.07;;;;;;;4.75;54.52;101065.88;5034884;28;20029;-40
2024/01/06 09:45:39;;;;;;;10.10;4.85;;;;;;;4.65;55.19;101067.88;5035589;28;20052;-40
2024/01/06 09:48:11;;;;;;;11.38;4.82;;;;;;;4.66;55.19;101071.31;5042757;28;20021;-39
2024/01/06 09:50:40;;;;;;;10.52;4.75;;;;;;;4.68;54.58;101070.41;5043913;28;20064;-40
2024/01/06 09:53:08;;;;;;;7.68;3.85;;;;;;;4.61;55.15;101075.84;5042998;28;20068;-39
2024/01/06 09:55:35;;;;;;;10.63;5.28;;;;;;;4.60;55.21;101072.34;5044332;28;20055;-40
2024/01/06 09:58:01;;;;;;;13.38;4.57;;;;;;;4.61;54.56;101078.44;5039944;28;20435;-40
2024/01/06 10:00:26;;;;;;;8.30;3.90;;;;;;;4.19;55.31;101088.19;5044916;28;20040;-39
2024/01/06 10:02:51;;;;;;;14.07;5.63;;;;;;;4.25;55.15;101090.66;5041079;28;20599;-40
2024/01/06 10:05:17;;;;;;;11.85;6.53;;;;;;;4.43;55.51;101096.28;5039379;28;20033;-40
2024/01/06 10:07:46;;;;;;;10.40;4.18;;;;;;;4.58;54.97;101100.22;5042849;28;20036;-40
2024/01/06 10:10:12;;;;;;;8.10;3.50;;;;;;;4.51;54.87;101093.47;5045543;28;20040;-40
2024/01/06 10:12:41;;;;;;;9.48;3.60;;;;;;;4.55;54.79;101103.75;5049763;28;20487;-40
2024/01/06 10:15:07;;;;;;;7.10;3.20;;;;;;;4.56;54.27;101104.59;5048759;28;20050;-40
2024/01/06 10:17:37;;;;;;;5.88;2.78;;;;;;;4.41;54.25;101103.28;5048963;28;20036;-40
2024/01/06 10:20:03;;;;;;;7.30;4.00;;;;;;;4.47;54.15;101108.31;5051159;28;20039;-39
2024/01/06 10:22:28;;;;;;;7.72;4.00;;;;;;;4.37;54.12;101106.84;5048135;28;20032;-39
2024/01/06 10:24:55;;;;;;;8.27;4.00;;;;;;;4.48;54.60;101103.97;5051629;28;20032;-40
2024/01/06 10:27:21;;;;;;;7.60;3.63;;;;;;;4.43;54.71;101111.91;5053982;28;20037;-40
2024/01/06 10:29:46;;;;;;;8.60;4.38;;;;;;;4.46;55.11;101098.81;5050387;28;20144;-40
2024/01/06 10:32:12;;;;;;;8.15;3.13;;;;;;;4.52;54.49;101101.22;5046654;28;20502;-40
2024/01/06 10:34:38;;;;;;;9.25;3.92;;;;;;;4.34;54.28;101101.72;5049300;28;20033;-40
2024/01/06 10:37:03;;;;;;;9.02;4.00;;;;;;;4.46;54.90;101105.75;5044367;28;20033;-40
2024/01/06 10:39:29;;;;;;;11.18;4.05;;;;;;;4.55;54.48;101100.28;5044336;28;20061;-39
2024/01/06 10:41:56;;;;;;;7.35;2.97;;;;;;;4.58;54.32;101108.91;5045972;28;20064;-40
2024/01/06 10:44:21;;;;;;;6.93;3.00;;;;;;;4.36;54.14;101105.13;5047206;28;20036;-39
2024/01/06 10:46:48;;;;;;;5.75;2.90;;;;;;;4.60;54.67;101113.22;5043360;28;20261;-40
2024/01/06 10:49:15;;;;;;;6.05;3.63;;;;;;;4.71;54.22;101124.19;5046607;28;20040;-39
2024/01/06 10:51:40;;;;;;;11.48;4.55;;;;;;;4.68;54.08;101126.88;5046346;28;20029;-40
2024/01/06 10:54:06;;;;;;;8.55;3.05;;;;;;;4.63;54.12;101123.53;5044956;28;20047;-40
2024/01/06 10:56:37;;;;;;;6.90;2.78;;;;;;;4.76;53.89;101124.06;5042772;28;20119;-39
2024/01/06 10:59:04;;;;;;;10.48;3.97;;;;;;;4.80;54.10;101121.34;5045214;28;20037;-40
2024/01/06 11:01:29;;;;;;;11.18;5.07;;;;;;;4.85;54.00;101109.03;5044021;28;20048;-40
2024/01/06 11:03:55;;;;;;;10.30;3.80;;;;;;;4.88;53.48;101114.16;5046014;28;20025;-40
2024/01/06 11:06:21;;;;;;;6.75;2.97;;;;;;;4.82;53.67;101109.09;5048650;28;20040;-40
2024/01/06 11:09:01;;;;;;;9.10;3.67;;;;;;;4.93;53.81;101110.56;5042823;28;20029;-40
2024/01/06 11:11:28;;;;;;;6.05;2.92;;;;;;;4.65;53.37;101111.31;5044161;28;20613;-39
2024/01/06 11:14:27;;;;;;;5.50;3.30;;;;;;;4.84;53.37;101112.53;5044928;28;20033;-39
2024/01/06 11:16:54;;;;;;;9.35;3.45;;;;;;;4.69;52.92;101113.78;5046233;28;20462;-40